Time;durP1;ratioP1;P1;durP2;ratioP2;P2;SDS_P1;SDS_P2;PMS_P1;PMS_P2;Temp;Humidity;BMP_temperature;BMP_pressure;BME280_temperature;BME280_humidity;BME280_pressure;Samples;Min_cycle;Max_cycle;Signal;HPM_P1;HPM_P2
2023/03/17 00:00:18;;;;;;;6.88;3.22;;;11.30;60.40;;;;;;5025092;28;20025;-82
2023/03/17 00:02:45;;;;;;;8.05;3.85;;;11.30;60.50;;;;;;5011940;28;20391;-79
2023/03/17 00:05:14;;;;;;;6.82;3.80;;;11.20;60.50;;;;;;5024185;28;20487;-79
2023/03/17 00:07:40;;;;;;;6.85;3.50;;;11.20;60.40;;;;;;5022228;28;20033;-80
2023/03/17 00:10:16;;;;;;;5.85;3.17;;;11.20;60.70;;;;;;5017989;28;20098;-80
2023/03/17 00:12:42;;;;;;;8.55;3.35;;;11.10;60.70;;;;;;4997072;28;20042;-79
2023/03/17 00:15:09;;;;;;;7.03;3.70;;;11.10;60.90;;;;;;5019374;28;20026;-77
2023/03/17 00:17:35;;;;;;;5.65;3.25;;;11.10;60.90;;;;;;5020124;28;20037;-80
2023/03/17 00:20:02;;;;;;;9.43;3.58;;;11.10;60.90;;;;;;5024523;28;20544;-79
2023/03/17 00:22:28;;;;;;;7.00;3.35;;;11.10;60.90;;;;;;5024931;28;20216;-81
2023/03/17 00:24:54;;;;;;;7.72;3.58;;;11.10;61.10;;;;;;5001720;28;20037;-81
2023/03/17 00:27:20;;;;;;;9.32;3.60;;;11.10;61.10;;;;;;5026519;28;20707;-79
2023/03/17 00:29:46;;;;;;;8.18;3.75;;;11.10;61.10;;;;;;5011269;28;20510;-78
2023/03/17 00:32:17;;;;;;;7.78;3.70;;;11.10;61.20;;;;;;4999967;28;20045;-82
2023/03/17 00:34:44;;;;;;;9.82;3.75;;;11.00;61.30;;;;;;5013249;28;20026;-81
2023/03/17 00:37:11;;;;;;;7.10;3.88;;;11.00;61.30;;;;;;5020540;28;20029;-81
2023/03/17 00:39:38;;;;;;;7.75;4.07;;;11.00;61.30;;;;;;5001866;28;20383;-79
2023/03/17 00:42:05;;;;;;;7.82;3.88;;;11.10;61.30;;;;;;5018808;28;20037;-80
2023/03/17 00:44:32;;;;;;;8.05;4.07;;;11.00;61.40;;;;;;5022697;28;20500;-79
2023/03/17 00:46:58;;;;;;;6.90;3.67;;;11.00;61.40;;;;;;5020471;28;20065;-78
2023/03/17 00:49:25;;;;;;;7.13;3.40;;;11.00;61.60;;;;;;5021553;28;20021;-78
2023/03/17 00:51:51;;;;;;;7.32;3.80;;;11.00;61.50;;;;;;5020349;28;20048;-79
2023/03/17 00:54:20;;;;;;;7.57;3.55;;;11.00;61.60;;;;;;5019679;28;20504;-82
2023/03/17 00:56:47;;;;;;;6.88;3.92;;;11.00;61.50;;;;;;5016470;28;20030;-78
2023/03/17 00:59:29;;;;;;;8.90;4.15;;;11.00;61.50;;;;;;5021044;28;20111;-81
2023/03/17 01:01:56;;;;;;;9.55;4.05;;;10.90;61.90;;;;;;5016018;28;20081;-80
2023/03/17 01:04:21;;;;;;;8.95;3.85;;;11.00;61.80;;;;;;5024110;28;20642;-78
2023/03/17 01:06:49;;;;;;;10.82;3.88;;;11.00;61.70;;;;;;5040955;28;20061;-79
2023/03/17 01:09:17;;;;;;;8.18;3.95;;;10.90;61.70;;;;;;5020226;28;20112;-83
2023/03/17 01:11:43;;;;;;;8.48;3.92;;;11.00;61.80;;;;;;5032218;28;20075;-82
2023/03/17 01:14:10;;;;;;;6.65;3.63;;;10.90;61.70;;;;;;5021266;28;20049;-80
2023/03/17 01:16:35;;;;;;;7.47;4.13;;;10.90;61.80;;;;;;5030693;28;20040;-83
2023/03/17 01:19:01;;;;;;;8.93;4.28;;;10.90;61.80;;;;;;5025161;28;20025;-82
2023/03/17 01:21:27;;;;;;;6.78;3.85;;;11.00;61.70;;;;;;5021049;28;20029;-80
2023/03/17 01:23:52;;;;;;;7.72;3.60;;;11.00;61.70;;;;;;5024660;28;20653;-79
2023/03/17 01:26:18;;;;;;;7.22;3.90;;;10.90;61.60;;;;;;5025192;28;20037;-81
2023/03/17 01:28:44;;;;;;;8.15;3.90;;;11.00;61.70;;;;;;5031579;28;20582;-82
2023/03/17 01:31:11;;;;;;;7.90;3.90;;;11.00;61.60;;;;;;5029876;28;20033;-79
2023/03/17 01:33:37;;;;;;;7.72;3.83;;;11.00;61.40;;;;;;5023070;28;20040;-80
2023/03/17 01:36:02;;;;;;;8.60;3.75;;;11.00;61.30;;;;;;5041483;28;20513;-78
2023/03/17 01:38:28;;;;;;;7.80;3.53;;;11.00;61.40;;;;;;5027985;28;21372;-83
2023/03/17 01:40:54;;;;;;;7.60;4.07;;;11.10;61.50;;;;;;5028273;28;20148;-78
2023/03/17 01:43:26;;;;;;;7.72;3.80;;;11.10;61.20;;;;;;5025372;28;20013;-82
2023/03/17 01:46:23;;;;;;;7.50;3.78;;;11.10;61.10;;;;;;5021565;28;20512;-83
2023/03/17 01:49:06;;;;;;;8.13;3.75;;;11.10;61.20;;;;;;5022701;28;20025;-79
2023/03/17 01:51:37;;;;;;;8.82;3.90;;;11.10;61.10;;;;;;5021992;28;20056;-81
2023/03/17 01:54:33;;;;;;;7.60;3.55;;;11.00;61.30;;;;;;5022163;28;20670;-78
2023/03/17 01:57:22;;;;;;;9.02;4.25;;;11.00;61.70;;;;;;5012044;28;20069;-81
2023/03/17 01:59:58;;;;;;;7.60;3.88;;;10.90;61.90;;;;;;5021120;28;20037;-80
2023/03/17 02:02:31;;;;;;;10.80;4.10;;;10.90;62.20;;;;;;5026117;28;20492;-82
2023/03/17 02:04:58;;;;;;;9.18;4.22;;;10.90;62.10;;;;;;5023779;28;20029;-81
2023/03/17 02:07:25;;;;;;;7.95;4.47;;;10.90;62.10;;;;;;5025954;28;20132;-81
2023/03/17 02:09:53;;;;;;;7.05;4.20;;;10.90;62.10;;;;;;5020890;28;20033;-78
2023/03/17 02:12:21;;;;;;;7.90;4.13;;;10.90;62.10;;;;;;5021802;28;20303;-81
2023/03/17 02:14:46;;;;;;;8.23;4.10;;;10.80;62.30;;;;;;5018901;28;20021;-82
2023/03/17 02:17:13;;;;;;;8.98;4.35;;;10.80;62.50;;;;;;5025535;28;20041;-78
2023/03/17 02:19:39;;;;;;;7.90;4.00;;;10.80;62.50;;;;;;5027721;28;20489;-81
2023/03/17 02:22:05;;;;;;;8.27;4.20;;;10.80;62.70;;;;;;5029195;28;20036;-81
2023/03/17 02:24:39;;;;;;;10.80;4.15;;;10.80;62.80;;;;;;5022732;28;20481;-80
2023/03/17 02:27:21;;;;;;;10.93;5.45;;;10.70;62.90;;;;;;5034749;28;20111;-79
2023/03/17 02:29:48;;;;;;;8.75;4.40;;;10.70;62.90;;;;;;5022932;28;20138;-79
2023/03/17 02:32:16;;;;;;;8.30;4.80;;;10.70;63.00;;;;;;5019538;28;20095;-82
2023/03/17 02:34:43;;;;;;;8.82;4.20;;;10.60;63.20;;;;;;4998319;28;20059;-81
2023/03/17 02:37:09;;;;;;;8.60;4.25;;;10.60;63.40;;;;;;5029686;28;20544;-78
2023/03/17 02:39:36;;;;;;;10.68;4.55;;;10.60;63.50;;;;;;5022277;28;20370;-81
2023/03/17 02:42:02;;;;;;;8.75;4.15;;;10.60;63.50;;;;;;5022343;28;20378;-82
2023/03/17 02:44:28;;;;;;;7.80;4.75;;;10.60;63.70;;;;;;5028549;28;20531;-83
2023/03/17 02:46:53;;;;;;;8.18;4.72;;;10.60;63.70;;;;;;5018128;28;20041;-81
2023/03/17 02:49:20;;;;;;;7.95;4.35;;;10.60;63.90;;;;;;5005247;28;20044;-79
2023/03/17 02:51:46;;;;;;;7.72;4.18;;;10.60;63.90;;;;;;5021569;28;20159;-80
2023/03/17 02:54:12;;;;;;;7.63;4.63;;;10.60;63.80;;;;;;5023304;28;20037;-78
2023/03/17 02:56:38;;;;;;;8.93;4.47;;;10.60;63.90;;;;;;5020822;28;20029;-79
2023/03/17 02:59:05;;;;;;;9.13;4.65;;;10.60;64.00;;;;;;5025652;28;20049;-80
2023/03/17 03:01:31;;;;;;;7.85;4.20;;;10.60;64.10;;;;;;5020436;28;20034;-82
2023/03/17 03:03:57;;;;;;;10.30;4.70;;;10.60;64.30;;;;;;5022711;28;20028;-81
2023/03/17 03:06:23;;;;;;;9.73;4.78;;;10.60;64.40;;;;;;5021990;28;20043;-81
2023/03/17 03:08:50;;;;;;;7.82;4.20;;;10.50;64.50;;;;;;5022511;28;20029;-81
2023/03/17 03:11:15;;;;;;;7.95;3.95;;;10.50;64.50;;;;;;5019999;28;20044;-81
2023/03/17 03:13:41;;;;;;;8.50;4.53;;;10.50;64.80;;;;;;5022452;28;20381;-80
2023/03/17 03:16:08;;;;;;;7.10;3.75;;;10.50;64.90;;;;;;5016828;28;20034;-78
2023/03/17 03:18:33;;;;;;;8.15;4.35;;;10.40;64.80;;;;;;5020384;28;20055;-81
2023/03/17 03:20:59;;;;;;;7.70;4.25;;;10.40;65.10;;;;;;5016016;28;20033;-81
2023/03/17 03:23:26;;;;;;;9.13;4.53;;;10.30;65.20;;;;;;5001475;28;20017;-80
2023/03/17 03:25:52;;;;;;;8.10;4.28;;;10.30;65.20;;;;;;5025332;28;20195;-81
2023/03/17 03:28:18;;;;;;;6.72;4.07;;;10.30;65.30;;;;;;5025655;28;20040;-82
2023/03/17 03:30:44;;;;;;;7.32;4.07;;;10.30;65.40;;;;;;5010664;28;20022;-80
2023/03/17 03:33:11;;;;;;;8.52;4.20;;;10.20;65.60;;;;;;5005777;28;20486;-79
2023/03/17 03:35:37;;;;;;;10.05;4.07;;;10.20;65.80;;;;;;5024829;28;20444;-82
2023/03/17 03:38:03;;;;;;;9.73;4.35;;;10.10;66.00;;;;;;5021686;28;20017;-80
2023/03/17 03:40:29;;;;;;;7.90;4.20;;;10.10;66.20;;;;;;5019372;28;20533;-81
2023/03/17 03:42:55;;;;;;;8.30;3.92;;;10.10;66.40;;;;;;5020658;28;20410;-78
2023/03/17 03:45:20;;;;;;;6.85;3.80;;;10.10;66.60;;;;;;5020436;28;20109;-80
2023/03/17 03:47:46;;;;;;;8.30;4.20;;;10.10;66.70;;;;;;5020030;28;20107;-81
2023/03/17 03:50:12;;;;;;;8.57;3.95;;;10.00;66.90;;;;;;5028374;28;20076;-79
2023/03/17 03:52:38;;;;;;;7.90;4.25;;;10.10;67.00;;;;;;5027680;28;20029;-81
2023/03/17 03:55:04;;;;;;;8.18;3.88;;;10.00;67.20;;;;;;5025920;28;20427;-78
2023/03/17 03:57:29;;;;;;;10.05;4.55;;;10.00;67.20;;;;;;5016910;28;20045;-81
2023/03/17 03:59:55;;;;;;;8.02;4.50;;;10.00;67.30;;;;;;5014507;28;20033;-80
2023/03/17 04:02:21;;;;;;;9.95;4.65;;;10.00;67.30;;;;;;5019372;28;20509;-77
2023/03/17 04:04:47;;;;;;;9.63;4.38;;;9.90;67.40;;;;;;5019395;28;20033;-80
2023/03/17 04:07:12;;;;;;;10.07;4.30;;;9.90;67.30;;;;;;5018903;28;20361;-80
2023/03/17 04:09:38;;;;;;;8.75;3.90;;;9.90;67.30;;;;;;5016075;28;20014;-81
2023/03/17 04:12:04;;;;;;;7.40;3.97;;;9.90;67.40;;;;;;5017700;28;20120;-79
2023/03/17 04:14:30;;;;;;;9.93;4.50;;;9.80;67.40;;;;;;5019797;28;20048;-77
2023/03/17 04:16:56;;;;;;;9.73;4.22;;;9.80;67.30;;;;;;5016838;28;20567;-81
2023/03/17 04:19:22;;;;;;;6.57;3.95;;;9.80;67.50;;;;;;5022827;28;20462;-81
2023/03/17 04:21:48;;;;;;;7.93;5.13;;;9.80;67.60;;;;;;5000048;28;20446;-78
2023/03/17 04:24:14;;;;;;;8.65;4.47;;;9.70;67.80;;;;;;5005322;28;20571;-81
2023/03/17 04:26:40;;;;;;;10.05;4.90;;;9.70;67.80;;;;;;5019637;28;20080;-81
2023/03/17 04:29:14;;;;;;;8.25;4.25;;;9.70;67.90;;;;;;5020062;28;20043;-81
2023/03/17 04:31:40;;;;;;;8.57;4.38;;;9.70;68.00;;;;;;5023326;28;20036;-79
2023/03/17 04:34:05;;;;;;;7.95;4.53;;;9.60;68.00;;;;;;5014477;28;20022;-81
2023/03/17 04:36:31;;;;;;;7.85;4.65;;;9.60;68.10;;;;;;5027494;28;20103;-77
2023/03/17 04:38:57;;;;;;;8.40;4.10;;;9.60;68.30;;;;;;5010865;28;20064;-79
2023/03/17 04:41:23;;;;;;;10.38;4.88;;;9.60;68.50;;;;;;5019965;28;20033;-80
2023/03/17 04:43:49;;;;;;;8.82;4.72;;;9.50;68.70;;;;;;5030115;28;20361;-80
2023/03/17 04:46:15;;;;;;;7.85;5.13;;;9.40;68.90;;;;;;5016174;28;20087;-81
2023/03/17 04:48:40;;;;;;;9.68;4.80;;;9.50;68.90;;;;;;5015409;28;20103;-78
2023/03/17 04:51:06;;;;;;;9.05;4.78;;;9.50;68.80;;;;;;5022803;28;20029;-80
2023/03/17 04:53:32;;;;;;;8.52;4.60;;;9.60;68.80;;;;;;5019648;28;20111;-82
2023/03/17 04:55:57;;;;;;;11.00;5.00;;;9.50;68.80;;;;;;5019823;28;20052;-79
2023/03/17 04:58:24;;;;;;;8.15;3.92;;;9.60;68.90;;;;;;5009954;28;20018;-78
2023/03/17 05:00:50;;;;;;;8.45;4.75;;;9.60;68.60;;;;;;5016498;28;20219;-81
2023/03/17 05:03:16;;;;;;;9.38;4.95;;;9.60;68.50;;;;;;5035057;28;20013;-83
2023/03/17 05:05:42;;;;;;;10.68;5.45;;;9.70;68.20;;;;;;5030088;28;20029;-82
2023/03/17 05:08:07;;;;;;;8.32;4.57;;;9.70;68.20;;;;;;5014675;28;20031;-82
2023/03/17 05:10:33;;;;;;;8.85;4.63;;;9.70;68.10;;;;;;5017971;28;20112;-82
2023/03/17 05:12:59;;;;;;;8.68;5.05;;;9.70;68.10;;;;;;5037988;28;20044;-80
2023/03/17 05:15:25;;;;;;;9.93;5.32;;;9.80;67.80;;;;;;5027640;28;20040;-83
2023/03/17 05:17:50;;;;;;;9.02;4.80;;;9.80;67.60;;;;;;5029122;28;20034;-81
2023/03/17 05:20:16;;;;;;;9.65;4.50;;;9.80;67.60;;;;;;5029996;28;20024;-80
2023/03/17 05:22:42;;;;;;;7.68;4.70;;;9.90;67.30;;;;;;5025682;28;21314;-82
2023/03/17 05:25:08;;;;;;;9.77;4.80;;;9.90;67.40;;;;;;5034665;28;20029;-82
2023/03/17 05:27:33;;;;;;;11.25;4.80;;;9.90;67.40;;;;;;5029320;28;20485;-80
2023/03/17 05:29:59;;;;;;;8.60;4.70;;;10.00;67.20;;;;;;5036020;28;20049;-82
2023/03/17 05:32:25;;;;;;;9.15;4.75;;;10.00;67.10;;;;;;5020473;28;20367;-82
2023/03/17 05:34:51;;;;;;;9.32;4.70;;;10.00;67.00;;;;;;5006337;28;20037;-82
2023/03/17 05:37:17;;;;;;;10.15;4.85;;;10.00;67.10;;;;;;5020948;28;20036;-81
2023/03/17 05:39:42;;;;;;;10.00;5.07;;;10.00;67.10;;;;;;5027115;28;20033;-80
2023/03/17 05:42:08;;;;;;;10.88;4.82;;;10.00;67.30;;;;;;5023007;28;20048;-81
2023/03/17 05:44:34;;;;;;;8.95;4.68;;;10.00;67.20;;;;;;5010310;28;20044;-81
2023/03/17 05:47:00;;;;;;;8.73;4.63;;;10.00;67.30;;;;;;5035798;28;20107;-80
2023/03/17 05:49:27;;;;;;;7.82;4.40;;;10.00;67.10;;;;;;5028458;28;20029;-81
2023/03/17 05:51:54;;;;;;;7.50;4.35;;;10.00;67.20;;;;;;5027062;28;20107;-81
2023/03/17 05:54:20;;;;;;;9.65;5.15;;;10.00;67.20;;;;;;5021724;28;20017;-82
2023/03/17 05:56:46;;;;;;;10.93;5.38;;;10.00;67.30;;;;;;5020579;28;20076;-81
2023/03/17 05:59:14;;;;;;;10.38;4.57;;;10.00;67.30;;;;;;5027016;28;20033;-80
2023/03/17 06:01:40;;;;;;;12.07;4.80;;;10.10;67.20;;;;;;5023288;28;20065;-80
2023/03/17 06:04:06;;;;;;;10.77;5.85;;;10.00;67.20;;;;;;5025036;28;20117;-80
2023/03/17 06:06:32;;;;;;;10.02;4.90;;;10.10;67.30;;;;;;5028336;28;20556;-79
2023/03/17 06:08:58;;;;;;;10.93;4.80;;;10.10;67.20;;;;;;5030515;28;20407;-80
2023/03/17 06:11:25;;;;;;;9.85;5.10;;;10.00;67.30;;;;;;5020675;28;20137;-80
2023/03/17 06:13:51;;;;;;;10.13;4.75;;;10.10;67.40;;;;;;5024376;28;20142;-80
2023/03/17 06:16:17;;;;;;;10.02;5.20;;;10.10;67.50;;;;;;5023340;28;20086;-81
2023/03/17 06:18:44;;;;;;;10.32;5.30;;;10.00;67.50;;;;;;5021561;28;20527;-80
2023/03/17 06:21:11;;;;;;;9.30;5.30;;;10.00;67.50;;;;;;5025066;28;20690;-80
2023/03/17 06:23:36;;;;;;;9.88;5.15;;;9.90;67.60;;;;;;5020898;28;20024;-80
2023/03/17 06:26:02;;;;;;;9.32;4.95;;;10.00;67.50;;;;;;5016765;28;20042;-80
2023/03/17 06:28:28;;;;;;;9.85;5.18;;;10.00;67.50;;;;;;5016934;28;20025;-79
2023/03/17 06:30:54;;;;;;;13.10;5.03;;;10.10;67.60;;;;;;5018264;28;20385;-80
2023/03/17 06:33:19;;;;;;;9.55;4.70;;;10.00;67.70;;;;;;5019802;28;20044;-79
2023/03/17 06:35:45;;;;;;;14.45;5.35;;;10.10;67.60;;;;;;5021530;28;20053;-80
2023/03/17 06:38:12;;;;;;;11.35;5.47;;;10.10;67.60;;;;;;5032945;28;20123;-80
2023/03/17 06:40:38;;;;;;;10.07;5.55;;;10.10;67.70;;;;;;5026561;28;20481;-79
2023/03/17 06:43:04;;;;;;;11.75;5.05;;;10.10;67.40;;;;;;5025518;28;20060;-78
2023/03/17 06:45:31;;;;;;;11.68;5.63;;;10.10;67.50;;;;;;5024779;28;20465;-80
2023/03/17 06:47:57;;;;;;;11.55;5.00;;;10.20;67.40;;;;;;5010018;28;20037;-79
2023/03/17 06:50:24;;;;;;;9.10;4.72;;;10.30;67.20;;;;;;5019203;28;20095;-78
2023/03/17 06:52:50;;;;;;;8.50;4.47;;;10.30;67.00;;;;;;5018724;28;20064;-78
2023/03/17 06:55:16;;;;;;;11.48;4.97;;;10.40;66.90;;;;;;5019981;28;20042;-80
2023/03/17 06:57:42;;;;;;;9.77;5.07;;;10.50;66.50;;;;;;5017745;28;20440;-80
2023/03/17 07:00:11;;;;;;;13.63;5.07;;;10.50;66.40;;;;;;5024041;28;20026;-77
2023/03/17 07:02:37;;;;;;;9.68;4.55;;;10.50;66.40;;;;;;5016525;28;20099;-79
2023/03/17 07:05:03;;;;;;;9.60;4.78;;;10.60;66.50;;;;;;5021692;28;20037;-78
2023/03/17 07:07:29;;;;;;;10.50;4.25;;;10.60;66.50;;;;;;5020329;28;21114;-75
2023/03/17 07:09:55;;;;;;;11.38;4.72;;;10.70;66.30;;;;;;5019644;28;20033;-79
2023/03/17 07:12:20;;;;;;;9.73;4.40;;;10.70;66.20;;;;;;5016204;28;20033;-79
2023/03/17 07:14:46;;;;;;;9.52;4.70;;;10.80;65.90;;;;;;5022391;28;20322;-79
2023/03/17 07:17:13;;;;;;;9.05;4.40;;;10.80;65.70;;;;;;5022158;28;20118;-80
2023/03/17 07:19:40;;;;;;;12.63;4.82;;;10.80;65.80;;;;;;5026600;28;20021;-77
2023/03/17 07:22:06;;;;;;;11.95;4.97;;;10.90;65.70;;;;;;5010909;28;20041;-78
2023/03/17 07:24:33;;;;;;;10.48;4.82;;;10.90;65.30;;;;;;5024045;28;20421;-79
2023/03/17 07:26:58;;;;;;;12.10;5.20;;;11.00;65.20;;;;;;5023460;28;20474;-76
2023/03/17 07:29:25;;;;;;;9.60;4.93;;;11.00;65.50;;;;;;5022346;28;20247;-80
2023/03/17 07:31:52;;;;;;;10.73;5.40;;;11.00;65.50;;;;;;5017763;28;20041;-78
2023/03/17 07:34:17;;;;;;;15.48;5.22;;;11.00;65.60;;;;;;5019692;28;20060;-78
2023/03/17 07:36:43;;;;;;;11.48;5.00;;;11.10;65.30;;;;;;5017214;28;20037;-80
2023/03/17 07:39:09;;;;;;;11.02;4.82;;;11.10;65.20;;;;;;5016634;28;20032;-79
2023/03/17 07:41:35;;;;;;;11.48;4.60;;;11.10;65.70;;;;;;4997705;28;20437;-80
2023/03/17 07:44:02;;;;;;;10.98;4.97;;;11.20;65.30;;;;;;5018928;28;20038;-78
2023/03/17 07:46:28;;;;;;;13.02;5.47;;;11.30;65.30;;;;;;5015643;28;20140;-77
2023/03/17 07:48:54;;;;;;;10.52;4.78;;;11.40;65.00;;;;;;5027975;28;20722;-79
2023/03/17 07:51:22;;;;;;;11.07;5.18;;;11.50;64.90;;;;;;5020159;28;20106;-79
2023/03/17 07:53:51;;;;;;;11.68;5.70;;;11.60;64.60;;;;;;5019560;28;20033;-77
2023/03/17 07:56:17;;;;;;;10.43;5.22;;;11.60;64.00;;;;;;5022654;28;20059;-75
2023/03/17 07:58:43;;;;;;;10.07;4.97;;;11.60;64.10;;;;;;5017336;28;20029;-76
2023/03/17 08:01:09;;;;;;;10.95;4.75;;;11.70;64.20;;;;;;5021983;28;20041;-76
2023/03/17 08:03:36;;;;;;;11.20;5.10;;;11.80;63.70;;;;;;5017766;28;20927;-78
2023/03/17 08:06:02;;;;;;;11.23;5.30;;;11.80;64.00;;;;;;5015511;28;20038;-75
2023/03/17 08:08:28;;;;;;;10.48;5.50;;;11.80;63.80;;;;;;5005560;28;20398;-81
2023/03/17 08:11:02;;;;;;;9.10;5.30;;;11.80;63.90;;;;;;5014082;28;20026;-75
2023/03/17 08:13:28;;;;;;;11.70;4.95;;;11.80;64.20;;;;;;5019406;28;20021;-73
2023/03/17 08:15:54;;;;;;;10.02;4.97;;;11.80;64.30;;;;;;5021741;28;20415;-75
2023/03/17 08:18:20;;;;;;;12.25;5.95;;;11.80;64.30;;;;;;5018518;28;20630;-74
2023/03/17 08:20:46;;;;;;;11.35;5.25;;;12.00;64.60;;;;;;5019098;28;20036;-73
2023/03/17 08:23:11;;;;;;;10.40;5.35;;;12.00;64.30;;;;;;5017027;28;20025;-73
2023/03/17 08:25:37;;;;;;;9.25;4.53;;;12.10;64.00;;;;;;5026345;28;20721;-75
2023/03/17 08:28:03;;;;;;;11.73;4.95;;;12.10;63.60;;;;;;5022807;28;20045;-75
2023/03/17 08:30:29;;;;;;;13.27;5.22;;;12.10;63.80;;;;;;5021046;28;20036;-73
2023/03/17 08:32:55;;;;;;;10.98;5.88;;;12.30;64.10;;;;;;4998333;28;20500;-75
2023/03/17 08:35:21;;;;;;;12.70;5.47;;;12.30;63.90;;;;;;5021267;28;20033;-76
2023/03/17 08:37:46;;;;;;;11.50;5.63;;;12.30;63.70;;;;;;5021497;28;20040;-74
2023/03/17 08:40:16;;;;;;;11.85;5.20;;;12.40;63.60;;;;;;5022924;28;20029;-74
2023/03/17 08:42:42;;;;;;;13.32;4.93;;;12.50;63.60;;;;;;5017763;28;20485;-75
2023/03/17 08:45:10;;;;;;;11.80;4.72;;;12.50;63.50;;;;;;5029684;28;20209;-75
2023/03/17 08:47:37;;;;;;;11.88;5.65;;;12.50;64.00;;;;;;5003735;28;20389;-75
2023/03/17 08:50:04;;;;;;;12.85;5.93;;;12.50;63.80;;;;;;4994969;28;20068;-74
2023/03/17 08:52:30;;;;;;;10.75;5.40;;;12.40;64.10;;;;;;5004927;28;20334;-74
2023/03/17 08:54:56;;;;;;;12.80;5.78;;;12.30;64.60;;;;;;5001699;28;20477;-73
2023/03/17 08:57:23;;;;;;;11.18;5.10;;;12.30;64.80;;;;;;4997975;28;20457;-75
2023/03/17 08:59:49;;;;;;;11.50;5.32;;;12.20;65.00;;;;;;4999885;28;20126;-72
2023/03/17 09:02:15;;;;;;;13.05;6.03;;;12.30;65.00;;;;;;4999756;28;20068;-74
2023/03/17 09:04:41;;;;;;;12.52;5.30;;;12.20;64.80;;;;;;5007571;28;20074;-74
2023/03/17 09:07:08;;;;;;;21.02;5.75;;;12.20;65.10;;;;;;5000508;28;20417;-72
2023/03/17 09:09:35;;;;;;;13.45;5.70;;;12.40;65.00;;;;;;4998557;28;20022;-72
2023/03/17 09:12:04;;;;;;;12.70;5.60;;;12.40;64.80;;;;;;4996113;28;20030;-73
2023/03/17 09:14:30;;;;;;;10.75;4.78;;;12.50;64.70;;;;;;4998131;28;20057;-72
2023/03/17 09:16:56;;;;;;;12.73;5.47;;;12.40;64.80;;;;;;4998161;28;20822;-75
2023/03/17 09:19:22;;;;;;;15.00;5.93;;;12.40;65.00;;;;;;5002949;28;20052;-73
2023/03/17 09:21:49;;;;;;;13.90;5.82;;;12.30;65.30;;;;;;4993098;28;20026;-74
2023/03/17 09:24:14;;;;;;;14.82;6.28;;;12.20;66.50;;;;;;5001032;28;20108;-74
2023/03/17 09:26:41;;;;;;;13.00;6.25;;;12.10;67.20;;;;;;5004352;28;20137;-75
2023/03/17 09:29:07;;;;;;;20.05;7.15;;;12.10;67.60;;;;;;5002985;28;20444;-73
2023/03/17 09:31:35;;;;;;;13.63;5.43;;;12.10;67.60;;;;;;5009993;28;20100;-75
2023/03/17 09:34:03;;;;;;;14.00;5.97;;;12.10;67.90;;;;;;5001883;28;20072;-73
2023/03/17 09:36:31;;;;;;;13.20;6.28;;;12.20;67.60;;;;;;5000379;28;20121;-74
2023/03/17 09:38:57;;;;;;;19.67;6.15;;;12.20;67.20;;;;;;5000111;28;20029;-75
2023/03/17 09:41:50;;;;;;;14.60;6.30;;;12.40;66.90;;;;;;5009492;28;20475;-76
2023/03/17 09:44:40;;;;;;;14.52;5.93;;;12.50;66.90;;;;;;5001622;28;20106;-74
2023/03/17 09:47:34;;;;;;;11.15;6.15;;;12.60;66.40;;;;;;5015194;28;20100;-75
2023/03/17 09:50:07;;;;;;;14.52;6.20;;;12.90;65.80;;;;;;5036785;28;20381;-76
2023/03/17 09:52:33;;;;;;;11.43;5.60;;;13.10;65.10;;;;;;5021994;28;20037;-74
2023/03/17 09:55:02;;;;;;;11.30;5.28;;;13.40;64.90;;;;;;5038063;28;20458;-73
2023/03/17 09:57:36;;;;;;;14.68;5.45;;;13.60;64.10;;;;;;5026618;28;20053;-75
2023/03/17 10:00:18;;;;;;;15.38;5.97;;;13.70;63.90;;;;;;5023253;28;20095;-77
2023/03/17 10:02:45;;;;;;;13.02;5.65;;;13.70;62.40;;;;;;5008843;28;20099;-74
2023/03/17 10:05:21;;;;;;;11.35;5.38;;;13.80;62.00;;;;;;5023544;28;20044;-73
2023/03/17 10:08:15;;;;;;;12.88;5.70;;;14.00;62.20;;;;;;5030612;28;20075;-72
2023/03/17 10:10:59;;;;;;;9.70;5.13;;;14.30;61.60;;;;;;5017655;28;20037;-75
2023/03/17 10:13:44;;;;;;;11.68;5.70;;;14.60;60.40;;;;;;5022954;28;20098;-76
2023/03/17 10:16:17;;;;;;;12.15;5.55;;;14.60;60.00;;;;;;5028026;28;20103;-75
2023/03/17 10:18:57;;;;;;;11.77;5.22;;;14.60;60.20;;;;;;5002674;28;20082;-73
2023/03/17 10:21:33;;;;;;;12.90;5.55;;;14.70;60.00;;;;;;5030407;28;20033;-74
2023/03/17 10:24:03;;;;;;;10.77;5.18;;;14.80;60.00;;;;;;5034496;28;20064;-76
2023/03/17 10:27:05;;;;;;;12.05;5.38;;;14.80;59.80;;;;;;5029679;28;20540;-74
2023/03/17 10:29:31;;;;;;;10.40;5.78;;;15.00;59.70;;;;;;4978982;28;20426;-76
2023/03/17 10:31:57;;;;;;;9.95;5.65;;;15.00;59.70;;;;;;5013836;28;20030;-76
2023/03/17 10:34:29;;;;;;;14.98;5.68;;;15.00;59.60;;;;;;5025594;28;20029;-75
2023/03/17 10:37:00;;;;;;;9.63;5.35;;;15.10;58.90;;;;;;5023148;28;20412;-73
2023/03/17 10:39:26;;;;;;;9.25;5.43;;;15.10;59.40;;;;;;5020566;28;20022;-77
2023/03/17 10:42:18;;;;;;;9.90;5.13;;;15.10;58.60;;;;;;5022408;28;20034;-73
2023/03/17 10:44:51;;;;;;;11.23;5.32;;;15.10;59.20;;;;;;5010695;28;20017;-75
2023/03/17 10:47:28;;;;;;;11.57;5.00;;;15.10;59.00;;;;;;5019647;28;20068;-75
2023/03/17 10:49:57;;;;;;;11.43;5.60;;;15.10;58.80;;;;;;5020288;28;20457;-74
2023/03/17 10:52:29;;;;;;;8.90;4.40;;;15.20;58.70;;;;;;5007615;28;20457;-73
2023/03/17 10:55:00;;;;;;;13.43;5.68;;;15.40;58.40;;;;;;5003326;28;20018;-72
2023/03/17 10:57:27;;;;;;;9.43;4.90;;;15.40;58.40;;;;;;5009343;28;20184;-73
2023/03/17 10:59:55;;;;;;;11.50;5.60;;;15.60;58.50;;;;;;5018080;28;20132;-74
2023/03/17 11:02:26;;;;;;;9.65;4.90;;;15.60;57.60;;;;;;5020651;28;20025;-73
2023/03/17 11:05:02;;;;;;;9.45;4.88;;;15.50;57.80;;;;;;5017245;28;20036;-74
2023/03/17 11:07:39;;;;;;;11.32;5.15;;;15.60;58.20;;;;;;5019752;28;20057;-76
2023/03/17 11:10:19;;;;;;;9.00;5.13;;;15.60;57.90;;;;;;5020210;28;20527;-74
2023/03/17 11:12:49;;;;;;;10.88;4.97;;;15.80;57.50;;;;;;5019546;28;20029;-75
2023/03/17 11:15:16;;;;;;;10.13;5.03;;;16.10;56.60;;;;;;5020919;28;20044;-77
2023/03/17 11:18:06;;;;;;;11.15;5.18;;;16.20;56.00;;;;;;5025807;28;20037;-74
2023/03/17 11:20:48;;;;;;;9.63;5.30;;;16.40;56.60;;;;;;5008368;28;20086;-75
2023/03/17 11:23:51;;;;;;;13.50;4.85;;;16.60;56.00;;;;;;5014003;28;20045;-75
2023/03/17 11:26:38;;;;;;;9.20;4.68;;;16.80;55.80;;;;;;5008268;28;20080;-76
2023/03/17 11:29:21;;;;;;;11.57;4.97;;;17.00;55.00;;;;;;5001179;28;20127;-81
2023/03/17 11:31:59;;;;;;;9.68;5.00;;;17.10;55.60;;;;;;5019508;28;20040;-77
2023/03/17 11:34:42;;;;;;;11.25;4.93;;;17.10;55.60;;;;;;5017885;28;20040;-76
2023/03/17 11:37:46;;;;;;;13.25;5.20;;;17.10;55.80;;;;;;5019758;28;20033;-74
2023/03/17 11:40:33;;;;;;;9.65;4.90;;;17.00;55.70;;;;;;5033716;28;20087;-74
2023/03/17 11:42:59;;;;;;;8.80;4.65;;;17.00;56.00;;;;;;5022870;28;20044;-74
2023/03/17 11:45:45;;;;;;;10.20;4.88;;;17.00;55.70;;;;;;5020979;28;20026;-73
2023/03/17 11:49:08;;;;;;;8.68;4.75;;;17.00;56.10;;;;;;5016767;28;20781;-75
2023/03/17 11:52:03;;;;;;;8.82;4.70;;;17.10;55.50;;;;;;5003381;28;20056;-75
2023/03/17 11:54:34;;;;;;;;;;;17.20;55.60;;;;;;4994132;28;20033;-74
2023/03/17 11:57:04;;;;;;;12.77;5.05;;;17.20;54.90;;;;;;5016037;28;20274;-74
2023/03/17 11:59:54;;;;;;;11.73;5.03;;;17.40;55.20;;;;;;5019524;28;20033;-74
2023/03/17 12:02:19;;;;;;;13.85;4.85;;;17.60;54.60;;;;;;5017998;28;20033;-77
2023/03/17 12:05:08;;;;;;;9.82;5.53;;;17.50;54.60;;;;;;5035370;28;20109;-77
2023/03/17 12:07:55;;;;;;;11.35;4.75;;;17.60;54.50;;;;;;5022539;28;20112;-78
2023/03/17 12:10:27;;;;;;;9.20;4.97;;;17.60;55.20;;;;;;5019965;28;20036;-77
2023/03/17 12:13:05;;;;;;;10.05;4.70;;;17.60;54.60;;;;;;5027793;28;20048;-76
2023/03/17 12:15:35;;;;;;;13.02;5.63;;;17.80;53.70;;;;;;5015705;28;20375;-78
2023/03/17 12:18:31;;;;;;;12.07;5.28;;;17.90;53.80;;;;;;5029998;28;20482;-76
2023/03/17 12:21:00;;;;;;;11.60;4.88;;;18.10;53.70;;;;;;4997549;28;20061;-77
2023/03/17 12:23:55;;;;;;;11.20;5.05;;;18.00;53.50;;;;;;5021029;28;20041;-75
2023/03/17 12:27:16;;;;;;;10.05;5.03;;;17.90;53.60;;;;;;5012252;28;20045;-74
2023/03/17 12:29:55;;;;;;;13.05;5.07;;;18.00;54.20;;;;;;4948569;28;20324;-75
2023/03/17 12:32:40;;;;;;;13.15;5.60;;;18.30;54.70;;;;;;5022572;28;20045;-73
2023/03/17 12:35:18;;;;;;;;;;;18.50;54.10;;;;;;5022968;28;20029;-76
2023/03/17 12:37:45;;;;;;;10.13;4.95;;;18.60;53.20;;;;;;5016420;28;19989;-76
2023/03/17 12:40:17;;;;;;;10.65;5.50;;;18.60;53.90;;;;;;5019312;28;20033;-78
2023/03/17 12:43:20;;;;;;;12.32;5.43;;;18.70;53.60;;;;;;5023973;28;20079;-78
2023/03/17 12:45:47;;;;;;;13.52;5.70;;;18.90;53.20;;;;;;5030789;28;20034;-75
2023/03/17 12:48:37;;;;;;;11.25;5.20;;;19.00;53.70;;;;;;5021564;28;20029;-77
2023/03/17 12:51:18;;;;;;;14.10;4.60;;;19.10;53.70;;;;;;5019092;28;20111;-77
2023/03/17 12:53:47;;;;;;;9.65;4.93;;;19.00;53.10;;;;;;5017472;28;20075;-77
2023/03/17 12:56:19;;;;;;;11.77;5.22;;;18.90;54.10;;;;;;5019889;28;20044;-78